createdAt,value
2018-07-04T00:02:03.004Z,98.40
2018-07-04T00:04:42.519Z,99.30
2018-07-04T00:07:22.010Z,99.90
2018-07-04T00:10:01.481Z,99.90
2018-07-04T00:12:47.745Z,99.90
2018-07-04T00:15:28.272Z,99.90
2018-07-04T00:18:07.776Z,99.90
2018-07-04T00:20:47.140Z,99.90
2018-07-04T00:23:26.700Z,99.90
2018-07-04T00:26:06.240Z,99.90
2018-07-04T00:28:50.523Z,99.90
2018-07-04T00:31:29.956Z,99.90
2018-07-04T00:34:09.421Z,99.90
2018-07-04T00:36:48.908Z,99.90
2018-07-04T00:39:29.471Z,99.90
2018-07-04T00:42:09.946Z,99.90
2018-07-04T00:44:49.500Z,99.90
2018-07-04T00:47:29.075Z,99.90
2018-07-04T00:50:08.580Z,99.90
2018-07-04T00:52:48.425Z,99.90
2018-07-04T00:55:28.781Z,99.90
2018-07-04T00:58:08.620Z,99.90
2018-07-04T01:00:49.125Z,99.90
2018-07-04T01:03:29.536Z,99.90
2018-07-04T01:06:09.152Z,99.90
2018-07-04T01:08:48.643Z,99.90
2018-07-04T01:11:27.976Z,99.90
2018-07-04T01:14:07.595Z,99.90
2018-07-04T01:16:47.106Z,99.90
2018-07-04T01:19:26.644Z,99.90
2018-07-04T01:22:06.224Z,99.90
2018-07-04T01:24:45.762Z,99.90
2018-07-04T01:27:25.704Z,99.90
2018-07-04T01:30:05.216Z,99.90
2018-07-04T01:32:44.808Z,99.90
2018-07-04T01:35:24.197Z,99.90
2018-07-04T01:38:03.689Z,99.90
2018-07-04T01:40:43.226Z,99.90
2018-07-04T01:43:22.876Z,99.90
2018-07-04T01:46:02.464Z,99.90
2018-07-04T01:48:42.052Z,99.90
2018-07-04T01:51:22.157Z,99.90
2018-07-04T01:54:01.656Z,99.90
2018-07-04T01:56:41.139Z,99.90
2018-07-04T01:59:20.637Z,99.90
2018-07-04T02:02:00.175Z,99.90
2018-07-04T02:04:40.073Z,99.90
2018-07-04T02:07:19.702Z,99.90
2018-07-04T02:10:00.061Z,99.90
2018-07-04T02:12:39.506Z,99.90
2018-07-04T02:15:22.532Z,99.90
2018-07-04T02:18:02.185Z,99.90
2018-07-04T02:20:41.606Z,99.90
2018-07-04T02:23:21.081Z,99.90
2018-07-04T02:28:35.389Z,99.90
2018-07-04T02:31:18.004Z,99.90
2018-07-04T02:33:57.507Z,99.90
2018-07-04T02:39:11.528Z,99.90
2018-07-04T02:41:50.969Z,99.90
2018-07-04T02:44:30.344Z,99.90
2018-07-04T02:49:46.470Z,99.90
2018-07-04T02:54:59.838Z,99.90
2018-07-04T02:57:40.058Z,99.90
2018-07-04T03:00:19.566Z,99.90
2018-07-04T03:02:59.024Z,99.90
2018-07-04T03:05:38.551Z,99.90
2018-07-04T03:08:18.089Z,99.90
2018-07-04T03:10:57.600Z,99.90
2018-07-04T03:13:37.256Z,99.90
2018-07-04T03:16:16.757Z,99.90
2018-07-04T03:19:00.271Z,99.90
2018-07-04T03:21:39.672Z,99.90
2018-07-04T03:24:20.188Z,99.90
2018-07-04T03:27:00.852Z,99.90
2018-07-04T03:29:40.461Z,99.90
2018-07-04T03:32:24.234Z,99.90
2018-07-04T03:35:03.803Z,99.90
2018-07-04T03:37:43.416Z,99.90
2018-07-04T03:40:22.908Z,99.90
2018-07-04T03:43:02.452Z,99.90
2018-07-04T03:45:42.123Z,99.90
2018-07-04T03:48:24.440Z,99.90
2018-07-04T03:51:03.870Z,99.90
2018-07-04T03:53:43.384Z,99.90
2018-07-04T03:56:23.048Z,99.90
2018-07-04T03:59:03.513Z,99.90
2018-07-04T04:01:50.557Z,99.90
2018-07-04T04:04:33.532Z,99.90
2018-07-04T04:07:12.918Z,99.90
2018-07-04T04:09:52.932Z,99.90
2018-07-04T04:12:32.417Z,99.90
2018-07-04T04:15:11.932Z,99.90
2018-07-04T04:17:54.940Z,99.90
2018-07-04T04:20:34.709Z,99.90
2018-07-04T04:23:15.355Z,99.90
2018-07-04T04:25:54.860Z,99.90
2018-07-04T04:31:09.173Z,96.10
2018-07-04T04:33:53.119Z,94.40
2018-07-04T04:36:32.461Z,93.90
2018-07-04T04:39:12.997Z,92.90
2018-07-04T04:41:52.592Z,91.50
2018-07-04T04:44:32.082Z,90.00
2018-07-04T04:47:11.628Z,89.70
2018-07-04T04:49:55.163Z,87.40
2018-07-04T04:52:34.843Z,84.20
2018-07-04T04:55:15.180Z,81.70
2018-07-04T04:57:54.765Z,78.30
2018-07-04T05:00:34.368Z,76.70
2018-07-04T05:03:14.000Z,77.30
2018-07-04T05:05:53.789Z,79.40
2018-07-04T05:08:34.000Z,79.80
2018-07-04T05:11:13.615Z,80.20
2018-07-04T05:13:53.166Z,78.50
2018-07-04T05:16:32.715Z,78.30
2018-07-04T05:19:15.509Z,77.70
2018-07-04T05:21:55.031Z,77.60
2018-07-04T05:24:35.476Z,76.80
2018-07-04T05:27:14.988Z,75.20
2018-07-04T05:29:55.124Z,72.60
2018-07-04T05:32:34.644Z,71.10
2018-07-04T05:35:14.400Z,71.80
2018-07-04T05:37:54.493Z,69.40
2018-07-04T05:40:34.025Z,69.30
2018-07-04T05:43:13.675Z,69.10
2018-07-04T05:45:53.112Z,70.20
2018-07-04T05:48:32.845Z,69.80
2018-07-04T05:51:12.489Z,69.20
2018-07-04T05:53:51.912Z,69.00
2018-07-04T05:56:31.451Z,68.80
2018-07-04T06:01:45.006Z,64.70
2018-07-04T06:04:24.633Z,63.30
2018-07-04T06:07:04.204Z,62.00
2018-07-04T06:09:45.673Z,59.90
2018-07-04T06:12:25.176Z,58.60
2018-07-04T06:15:04.691Z,57.70
2018-07-04T06:17:44.832Z,57.50
2018-07-04T06:20:24.156Z,57.80
2018-07-04T06:23:03.561Z,58.50
2018-07-04T06:25:43.036Z,57.80
2018-07-04T06:28:23.460Z,58.10
2018-07-04T06:31:02.975Z,59.00
2018-07-04T06:33:42.520Z,57.80
2018-07-04T06:36:22.024Z,58.00
2018-07-04T06:38:49.292Z,58.00
2018-07-04T06:41:16.532Z,57.30
2018-07-04T06:43:43.777Z,56.60
2018-07-04T06:46:12.252Z,56.30
2018-07-04T06:51:07.377Z,58.10
2018-07-04T06:53:34.716Z,61.10
2018-07-04T06:56:02.083Z,64.10
2018-07-04T06:58:29.416Z,66.70
2018-07-04T07:00:56.670Z,68.30
2018-07-04T07:03:36.292Z,69.90
2018-07-04T07:06:15.838Z,70.10
2018-07-04T07:08:55.484Z,70.40
2018-07-04T07:11:34.856Z,70.90
2018-07-04T07:14:14.462Z,70.70
2018-07-04T07:16:54.151Z,71.10
2018-07-04T07:19:34.363Z,73.90
2018-07-04T07:22:13.938Z,74.00
2018-07-04T07:24:53.585Z,74.80
2018-07-04T07:27:33.194Z,75.10
2018-07-04T07:30:12.844Z,76.90
2018-07-04T07:32:52.465Z,75.80
2018-07-04T07:35:39.774Z,74.60
2018-07-04T07:38:19.364Z,73.10
2018-07-04T07:40:58.853Z,72.20
2018-07-04T07:43:38.548Z,71.10
2018-07-04T07:46:18.003Z,70.60
2018-07-04T07:51:32.228Z,70.10
2018-07-04T07:54:15.534Z,70.40
2018-07-04T07:56:54.917Z,69.80
2018-07-04T07:59:34.255Z,69.30
2018-07-04T08:02:14.612Z,68.90
2018-07-04T08:04:54.156Z,68.40
2018-07-04T08:07:33.804Z,67.50
2018-07-04T08:10:13.293Z,66.60
2018-07-04T08:12:52.759Z,67.30
2018-07-04T08:15:32.222Z,67.50
2018-07-04T08:18:11.918Z,69.20
2018-07-04T08:20:55.752Z,69.40
2018-07-04T08:23:35.286Z,69.70
2018-07-04T08:28:48.349Z,60.90
2018-07-04T08:34:01.853Z,64.10
2018-07-04T08:36:41.852Z,68.70
2018-07-04T08:39:21.319Z,68.60
2018-07-04T08:42:00.801Z,66.50
2018-07-04T08:44:40.465Z,66.10
2018-07-04T08:47:20.015Z,66.10
2018-07-04T08:49:59.533Z,66.50
2018-07-04T08:52:39.023Z,66.20
2018-07-04T08:55:18.608Z,65.60
2018-07-04T08:57:58.107Z,65.40
2018-07-04T09:00:38.188Z,64.60
2018-07-04T09:03:17.826Z,61.20
2018-07-04T09:05:57.341Z,60.70
2018-07-04T09:08:40.351Z,59.90
2018-07-04T09:11:19.876Z,59.50
2018-07-04T09:13:59.470Z,58.40
2018-07-04T09:16:39.609Z,56.90
2018-07-04T09:19:19.132Z,57.40
2018-07-04T09:21:58.638Z,56.40
2018-07-04T09:27:15.304Z,58.20
2018-07-04T09:29:54.939Z,59.70
2018-07-04T09:32:35.109Z,59.50
2018-07-04T09:35:14.523Z,59.10
2018-07-04T09:37:53.960Z,58.90
2018-07-04T09:40:33.417Z,57.60
2018-07-04T09:43:12.835Z,56.20
2018-07-04T09:45:52.192Z,54.90
2018-07-04T09:48:31.620Z,52.30
2018-07-04T09:51:11.138Z,51.50
2018-07-04T09:53:58.335Z,49.30
2018-07-04T09:56:37.915Z,48.60
2018-07-04T09:59:17.472Z,47.20
2018-07-04T10:01:56.892Z,46.40
2018-07-04T10:04:36.427Z,45.10
2018-07-04T10:07:15.988Z,45.40
2018-07-04T10:09:56.153Z,44.90
2018-07-04T10:12:35.534Z,44.80
2018-07-04T10:15:15.203Z,44.50
2018-07-04T10:17:55.067Z,43.50
2018-07-04T10:20:34.729Z,42.40
2018-07-04T10:23:26.009Z,43.40
2018-07-04T10:26:05.637Z,43.20
2018-07-04T10:28:45.219Z,43.90
2018-07-04T10:31:24.883Z,44.00
2018-07-04T10:34:04.792Z,43.00
2018-07-04T10:36:44.532Z,40.00
2018-07-04T10:39:28.809Z,41.30
2018-07-04T10:44:42.001Z,41.90
2018-07-04T10:47:21.636Z,40.40
2018-07-04T10:50:01.277Z,39.80
2018-07-04T10:52:40.911Z,39.00
2018-07-04T10:55:24.492Z,37.70
2018-07-04T10:58:03.973Z,37.00
2018-07-04T11:00:43.425Z,36.70
2018-07-04T11:03:22.967Z,36.40
2018-07-04T11:06:02.350Z,37.20
2018-07-04T11:08:44.987Z,36.30
2018-07-04T11:11:24.588Z,35.90
2018-07-04T11:14:04.063Z,35.60
2018-07-04T11:16:43.653Z,36.70
2018-07-04T11:19:23.234Z,35.90
2018-07-04T11:22:03.644Z,35.50
2018-07-04T11:24:43.127Z,35.30
2018-07-04T11:27:22.552Z,36.10
2018-07-04T11:30:02.382Z,34.40
2018-07-04T11:32:42.063Z,34.70
2018-07-04T11:35:22.627Z,34.10
2018-07-04T11:38:02.219Z,34.60
2018-07-04T11:40:41.756Z,33.20
2018-07-04T11:45:55.328Z,34.70
2018-07-04T11:48:23.831Z,35.10
2018-07-04T11:50:51.472Z,34.80
2018-07-04T11:53:18.778Z,34.10
2018-07-04T11:55:46.028Z,34.20
2018-07-04T11:58:13.660Z,33.70
2018-07-04T12:00:40.926Z,33.40
2018-07-04T12:03:16.161Z,33.50
2018-07-04T12:05:56.220Z,33.00
2018-07-04T12:08:23.478Z,33.60
2018-07-04T12:10:50.973Z,34.00
2018-07-04T12:13:19.409Z,34.60
2018-07-04T12:15:47.585Z,35.10
2018-07-04T12:18:14.835Z,35.20
2018-07-04T12:20:43.111Z,35.20
2018-07-04T12:23:10.845Z,33.40
2018-07-04T12:25:38.493Z,33.40
2018-07-04T12:28:05.831Z,33.10
2018-07-04T12:30:34.143Z,32.00
2018-07-04T12:33:01.894Z,31.50
2018-07-04T12:35:29.173Z,32.40
2018-07-04T12:37:56.492Z,32.70
2018-07-04T12:40:26.965Z,33.00
2018-07-04T12:42:54.266Z,33.50
2018-07-04T12:45:22.297Z,34.30
2018-07-04T12:47:49.658Z,32.90
2018-07-04T12:50:26.316Z,33.20
2018-07-04T12:52:54.248Z,32.60
2018-07-04T12:55:43.109Z,32.50
2018-07-04T12:58:22.805Z,33.30
2018-07-04T13:01:02.380Z,33.80
2018-07-04T13:03:41.974Z,33.50
2018-07-04T13:06:21.397Z,33.10
2018-07-04T13:09:01.665Z,33.40
2018-07-04T13:11:41.369Z,32.70
2018-07-04T13:14:21.105Z,32.50
2018-07-04T13:17:00.756Z,32.90
2018-07-04T13:19:40.443Z,32.40
2018-07-04T13:24:54.453Z,32.50
2018-07-04T13:27:34.148Z,32.50
2018-07-04T13:30:13.599Z,33.20
2018-07-04T13:32:53.196Z,32.60
2018-07-04T13:35:32.677Z,33.50
2018-07-04T13:38:12.216Z,33.40
2018-07-04T13:43:26.440Z,33.70
2018-07-04T13:46:05.925Z,33.50
2018-07-04T13:51:19.326Z,33.90
2018-07-04T13:53:58.906Z,34.20
2018-07-04T13:59:12.270Z,34.00
2018-07-04T14:04:25.758Z,32.90
2018-07-04T14:07:05.502Z,32.70
2018-07-04T14:09:45.397Z,33.10
2018-07-04T14:12:25.977Z,33.20
2018-07-04T14:15:05.656Z,34.00
2018-07-04T14:17:45.250Z,34.00
2018-07-04T14:22:59.199Z,34.20
2018-07-04T14:25:38.843Z,34.00
2018-07-04T14:28:18.605Z,34.30
2018-07-04T14:30:58.392Z,34.00
2018-07-04T14:33:38.082Z,41.90
2018-07-04T14:36:17.670Z,44.20
2018-07-04T14:38:58.419Z,46.10
2018-07-04T14:41:37.985Z,47.50
2018-07-04T14:44:17.686Z,48.60
2018-07-04T14:46:57.228Z,49.50
2018-07-04T14:49:36.709Z,49.80
2018-07-04T14:54:52.054Z,51.30
2018-07-04T14:57:34.892Z,51.50
2018-07-04T15:00:14.624Z,52.20
2018-07-04T15:02:54.369Z,52.10
2018-07-04T15:05:34.019Z,52.70
2018-07-04T15:08:13.618Z,52.90
2018-07-04T15:10:53.121Z,53.10
2018-07-04T15:13:32.717Z,53.40
2018-07-04T15:16:12.307Z,53.30
2018-07-04T15:18:52.044Z,53.30
2018-07-04T15:21:31.759Z,53.20
2018-07-04T15:24:11.376Z,52.50
2018-07-04T15:26:51.862Z,52.60
2018-07-04T15:29:34.347Z,52.20
2018-07-04T15:32:13.854Z,51.70
2018-07-04T15:34:53.374Z,51.30
2018-07-04T15:37:33.072Z,50.80
2018-07-04T15:40:12.632Z,51.00
2018-07-04T15:42:52.388Z,50.80
2018-07-04T15:45:31.999Z,50.70
2018-07-04T15:50:45.474Z,51.20
2018-07-04T15:53:25.226Z,52.50
2018-07-04T15:56:04.803Z,52.10
2018-07-04T15:58:48.466Z,52.40
2018-07-04T16:01:27.981Z,53.00
2018-07-04T16:04:07.723Z,53.30
2018-07-04T16:06:47.339Z,53.00
2018-07-04T16:09:26.807Z,52.30
2018-07-04T16:12:07.589Z,51.90
2018-07-04T16:14:47.064Z,51.20
2018-07-04T16:17:26.843Z,48.50
2018-07-04T16:20:06.704Z,47.80
2018-07-04T16:22:46.229Z,48.40
2018-07-04T16:28:00.034Z,51.90
2018-07-04T16:30:39.604Z,53.00
2018-07-04T16:33:19.309Z,53.90
2018-07-04T16:35:58.732Z,54.70
2018-07-04T16:38:38.306Z,54.60
2018-07-04T16:43:52.062Z,55.40
2018-07-04T16:49:08.404Z,56.30
2018-07-04T16:54:21.756Z,56.90
2018-07-04T16:57:01.257Z,57.60
2018-07-04T16:59:45.126Z,56.40
2018-07-04T17:02:24.813Z,57.60
2018-07-04T17:05:04.370Z,64.30
2018-07-04T17:07:43.946Z,66.20
2018-07-04T17:10:23.552Z,70.10
2018-07-04T17:13:03.162Z,69.10
2018-07-04T17:15:43.293Z,72.50
2018-07-04T17:18:22.837Z,68.80
2018-07-04T17:21:02.344Z,68.80
2018-07-04T17:23:42.022Z,69.20
2018-07-04T17:28:55.098Z,68.00
2018-07-04T17:31:37.720Z,68.10
2018-07-04T17:34:17.304Z,67.50
2018-07-04T17:36:57.304Z,69.10
2018-07-04T17:39:36.714Z,70.70
2018-07-04T17:42:16.305Z,73.90
2018-07-04T17:44:55.988Z,71.70
2018-07-04T17:50:09.179Z,73.40
2018-07-04T17:52:48.767Z,73.50
2018-07-04T17:58:02.549Z,73.10
2018-07-04T18:00:44.980Z,74.80
2018-07-04T18:03:24.645Z,73.60
2018-07-04T18:06:04.283Z,77.80
2018-07-04T18:08:43.737Z,74.00
2018-07-04T18:11:24.007Z,76.90
2018-07-04T18:14:03.442Z,81.80
2018-07-04T18:16:43.351Z,83.30
2018-07-04T18:19:23.052Z,83.00
2018-07-04T18:22:02.565Z,84.40
2018-07-04T18:24:42.211Z,86.10
2018-07-04T18:27:21.648Z,87.70
2018-07-04T18:30:02.030Z,89.60
2018-07-04T18:32:41.533Z,90.30
2018-07-04T18:35:21.031Z,91.30
2018-07-04T18:38:00.653Z,91.60
2018-07-04T18:40:40.492Z,91.90
2018-07-04T18:43:20.237Z,92.90
2018-07-04T18:46:04.823Z,91.60
2018-07-04T18:48:44.337Z,92.30
2018-07-04T18:51:23.973Z,91.00
2018-07-04T18:56:38.297Z,91.30
2018-07-04T18:59:18.136Z,92.60
2018-07-04T19:02:02.212Z,93.30
2018-07-04T19:04:41.741Z,93.00
2018-07-04T19:07:21.633Z,91.80
2018-07-04T19:10:01.562Z,92.80
2018-07-04T19:12:41.220Z,93.10
2018-07-04T19:15:20.760Z,95.70
2018-07-04T19:18:01.562Z,95.10
2018-07-04T19:20:41.179Z,94.50
2018-07-04T19:23:20.972Z,94.70
2018-07-04T19:26:02.307Z,95.20
2018-07-04T19:28:42.500Z,95.70
2018-07-04T19:31:22.147Z,97.10
2018-07-04T19:34:02.465Z,96.60
2018-07-04T19:36:41.880Z,96.80
2018-07-04T19:39:21.449Z,97.00
2018-07-04T19:42:01.081Z,98.00
2018-07-04T19:44:40.691Z,99.90
2018-07-04T19:47:23.621Z,99.90
2018-07-04T19:50:03.847Z,99.90
2018-07-04T19:52:43.336Z,99.90
2018-07-04T19:55:23.112Z,99.90
2018-07-04T19:58:02.832Z,99.90
2018-07-04T20:00:44.161Z,99.90
2018-07-04T20:03:24.832Z,99.90
2018-07-04T20:06:05.239Z,99.90
2018-07-04T20:08:44.752Z,99.90
2018-07-04T20:11:24.120Z,99.90
2018-07-04T20:14:03.647Z,99.90
2018-07-04T20:19:17.168Z,99.90
2018-07-04T20:21:57.194Z,99.90
2018-07-04T20:24:37.069Z,99.90
2018-07-04T20:27:16.625Z,99.90
2018-07-04T20:29:56.465Z,99.90
2018-07-04T20:32:36.003Z,99.90
2018-07-04T20:35:15.627Z,99.90
2018-07-04T20:40:41.364Z,99.90
2018-07-04T20:43:20.919Z,99.90
2018-07-04T20:48:37.448Z,99.90
2018-07-04T20:51:17.322Z,99.90
2018-07-04T20:53:56.785Z,99.90
2018-07-04T20:59:10.416Z,99.90
2018-07-04T21:01:49.961Z,99.90
2018-07-04T21:04:29.779Z,99.90
2018-07-04T21:07:09.449Z,99.90
2018-07-04T21:09:49.192Z,99.90
2018-07-04T21:12:29.375Z,99.90
2018-07-04T21:15:08.981Z,99.90
2018-07-04T21:17:48.584Z,99.90
2018-07-04T21:20:28.179Z,99.90
2018-07-04T21:23:07.762Z,99.90
2018-07-04T21:25:47.244Z,99.90
2018-07-04T21:28:26.776Z,99.90
2018-07-04T21:36:14.503Z,99.90
2018-07-04T21:38:54.067Z,99.90
2018-07-04T21:41:33.686Z,99.90
2018-07-04T21:44:13.280Z,99.90
2018-07-04T21:46:52.767Z,99.90
2018-07-04T21:52:10.241Z,99.90
2018-07-04T21:54:49.781Z,99.90
2018-07-04T21:57:29.325Z,99.90
2018-07-04T22:00:08.837Z,99.90
2018-07-04T22:02:48.329Z,99.90
2018-07-04T22:08:06.773Z,99.90
2018-07-04T22:13:20.473Z,99.90
2018-07-04T22:16:00.077Z,99.90
2018-07-04T22:18:40.548Z,99.90
2018-07-04T22:21:20.041Z,99.90
2018-07-04T22:24:00.397Z,99.90
2018-07-04T22:26:40.080Z,99.90
2018-07-04T22:29:19.580Z,99.90
2018-07-04T22:31:59.079Z,99.90
2018-07-04T22:34:39.583Z,99.90
2018-07-04T22:37:20.053Z,99.90
2018-07-04T22:39:59.589Z,99.90
2018-07-04T22:42:39.188Z,99.90
2018-07-04T22:45:18.641Z,99.90
2018-07-04T22:47:58.109Z,99.90
2018-07-04T22:50:40.682Z,99.90
2018-07-04T22:53:20.236Z,99.90
2018-07-04T22:55:59.871Z,99.90
2018-07-04T22:58:40.011Z,99.90
2018-07-04T23:01:19.477Z,99.90
2018-07-04T23:03:59.107Z,99.90
2018-07-04T23:06:38.653Z,99.90
2018-07-04T23:09:18.272Z,99.90
2018-07-04T23:11:57.892Z,99.90
2018-07-04T23:14:37.765Z,99.90
2018-07-04T23:17:17.624Z,99.90
2018-07-04T23:19:57.232Z,99.90
2018-07-04T23:22:36.780Z,99.90
2018-07-04T23:27:49.795Z,99.90
2018-07-04T23:30:29.256Z,99.90
2018-07-04T23:33:08.872Z,99.90
2018-07-04T23:35:52.316Z,99.90
2018-07-04T23:38:31.868Z,99.90
2018-07-04T23:41:11.320Z,99.90
2018-07-04T23:46:24.516Z,99.90
2018-07-04T23:49:04.037Z,99.90
2018-07-04T23:51:43.868Z,99.90
2018-07-04T23:54:23.601Z,99.90
2018-07-04T23:57:03.424Z,99.90
2018-07-04T23:59:42.910Z,99.90
